createdAt,value
2022-11-28T00:01:24.487Z,2.03
2022-11-28T00:03:51.819Z,1.97
2022-11-28T00:06:19.106Z,1.94
2022-11-28T00:08:46.335Z,1.89
2022-11-28T00:11:14.986Z,1.85
2022-11-28T00:13:42.977Z,1.82
2022-11-28T00:16:16.394Z,1.82
2022-11-28T00:18:44.184Z,1.84
2022-11-28T00:21:13.448Z,1.82
2022-11-28T00:23:41.533Z,1.80
2022-11-28T00:26:10.488Z,1.79
2022-11-28T00:28:37.995Z,1.77
2022-11-28T00:31:05.223Z,1.77
2022-11-28T00:33:33.489Z,1.80
2022-11-28T00:36:02.023Z,1.75
2022-11-28T00:38:29.841Z,1.73
2022-11-28T00:41:16.146Z,1.75
2022-11-28T00:43:44.689Z,1.72
2022-11-28T00:46:13.285Z,1.75
2022-11-28T00:48:41.343Z,1.76
2022-11-28T00:51:23.302Z,1.78
2022-11-28T00:53:51.798Z,1.80
2022-11-28T00:56:24.671Z,1.84
2022-11-28T00:58:52.325Z,1.80
2022-11-28T01:01:25.829Z,1.83
2022-11-28T01:03:55.461Z,1.79
2022-11-28T01:06:24.205Z,1.83
2022-11-28T01:08:51.974Z,1.82
2022-11-28T01:11:19.430Z,1.89
2022-11-28T01:13:46.395Z,1.92
2022-11-28T01:16:13.429Z,1.94
2022-11-28T01:18:40.541Z,1.91
2022-11-28T01:21:08.524Z,1.97
2022-11-28T01:23:36.113Z,1.99
2022-11-28T01:26:05.721Z,1.99
2022-11-28T01:28:33.512Z,2.06
2022-11-28T01:31:21.813Z,2.03
2022-11-28T01:33:49.303Z,2.05
2022-11-28T01:36:17.191Z,2.04
2022-11-28T01:38:44.595Z,2.04
2022-11-28T01:41:12.321Z,2.06
2022-11-28T01:43:57.818Z,2.07
2022-11-28T01:46:24.804Z,2.04
2022-11-28T01:48:52.913Z,2.06
2022-11-28T01:51:20.623Z,1.99
2022-11-28T01:53:48.615Z,2.01
2022-11-28T01:56:23.424Z,1.96
2022-11-28T01:58:56.710Z,2.00
2022-11-28T02:01:25.397Z,1.92
2022-11-28T02:03:53.016Z,1.88
2022-11-28T02:06:23.838Z,1.85
2022-11-28T02:08:54.937Z,1.84
2022-11-28T02:11:36.936Z,1.82
2022-11-28T02:14:25.075Z,1.82
2022-11-28T02:17:21.298Z,1.79
2022-11-28T02:20:06.904Z,1.77
2022-11-28T02:22:51.619Z,1.73
2022-11-28T02:25:43.288Z,1.74
2022-11-28T02:28:47.330Z,1.71
2022-11-28T02:31:44.962Z,1.73
2022-11-28T02:34:20.512Z,1.71
2022-11-28T02:36:55.699Z,1.68
2022-11-28T02:39:45.555Z,1.68
2022-11-28T02:42:23.936Z,1.69
2022-11-28T02:45:05.928Z,1.68
2022-11-28T02:47:36.628Z,1.63
2022-11-28T02:50:22.146Z,1.59
2022-11-28T02:53:02.480Z,1.57
2022-11-28T02:55:29.886Z,1.58
2022-11-28T02:57:56.909Z,1.57
2022-11-28T03:00:28.900Z,1.56
2022-11-28T03:03:23.547Z,1.54
2022-11-28T03:06:10.642Z,1.54
2022-11-28T03:08:56.206Z,1.52
2022-11-28T03:11:55.237Z,1.47
2022-11-28T03:14:42.641Z,1.46
2022-11-28T03:17:24.992Z,1.45
2022-11-28T03:20:10.269Z,1.44
2022-11-28T03:22:48.997Z,1.45
2022-11-28T03:25:37.502Z,1.47
2022-11-28T03:28:11.570Z,1.40
2022-11-28T03:30:46.070Z,1.42
2022-11-28T03:33:16.468Z,1.40
2022-11-28T03:35:54.577Z,1.38
2022-11-28T03:38:32.573Z,1.38
2022-11-28T03:41:03.289Z,1.40
2022-11-28T03:43:36.911Z,1.42
2022-11-28T03:46:08.684Z,1.40
2022-11-28T03:48:40.420Z,1.40
2022-11-28T03:51:16.316Z,1.40
2022-11-28T03:53:59.668Z,1.38
2022-11-28T03:56:45.903Z,1.42
2022-11-28T03:59:26.519Z,1.42
2022-11-28T04:02:11.356Z,1.43
2022-11-28T04:04:59.937Z,1.41
2022-11-28T04:07:54.586Z,1.43
2022-11-28T04:10:41.786Z,1.47
2022-11-28T04:13:14.124Z,1.44
2022-11-28T04:16:01.904Z,1.46
2022-11-28T04:18:51.627Z,1.46
2022-11-28T04:21:24.165Z,1.54
2022-11-28T04:23:55.248Z,1.54
2022-11-28T04:26:33.868Z,1.56
2022-11-28T04:29:08.363Z,1.56
2022-11-28T04:31:36.880Z,1.60
2022-11-28T04:34:09.196Z,1.58
2022-11-28T04:36:39.625Z,1.58
2022-11-28T04:39:13.141Z,1.64
2022-11-28T04:41:45.898Z,1.59
2022-11-28T04:44:19.848Z,1.51
2022-11-28T04:46:52.865Z,1.48
2022-11-28T04:49:19.915Z,1.49
2022-11-28T04:51:57.113Z,1.48
2022-11-28T04:54:35.502Z,1.44
2022-11-28T04:57:14.821Z,1.41
2022-11-28T04:59:43.261Z,1.35
2022-11-28T05:02:12.271Z,1.30
2022-11-28T05:04:39.565Z,1.29
2022-11-28T05:07:08.581Z,1.30
2022-11-28T05:09:36.457Z,1.26
2022-11-28T05:12:03.544Z,1.24
2022-11-28T05:14:30.511Z,1.22
2022-11-28T05:16:57.420Z,1.21
2022-11-28T05:19:24.431Z,1.23
2022-11-28T05:21:53.275Z,1.22
2022-11-28T05:24:22.275Z,1.22
2022-11-28T05:26:49.578Z,1.19
2022-11-28T05:29:16.916Z,1.19
2022-11-28T05:31:43.998Z,1.22
2022-11-28T05:34:10.981Z,1.19
2022-11-28T05:36:37.855Z,1.19
2022-11-28T05:39:04.736Z,1.17
2022-11-28T05:41:33.008Z,1.19
2022-11-28T05:44:01.333Z,1.23
2022-11-28T05:46:29.721Z,1.21
2022-11-28T05:48:57.304Z,1.29
2022-11-28T05:51:24.791Z,1.30
2022-11-28T05:53:51.785Z,1.28
2022-11-28T05:56:20.606Z,1.35
2022-11-28T05:58:47.585Z,1.31
2022-11-28T06:01:20.305Z,1.34
2022-11-28T06:03:47.662Z,1.36
2022-11-28T06:06:18.543Z,1.31
2022-11-28T06:08:46.916Z,1.35
2022-11-28T06:11:15.073Z,1.35
2022-11-28T06:13:43.474Z,1.33
2022-11-28T06:16:12.390Z,1.41
2022-11-28T06:18:40.113Z,1.39
2022-11-28T06:21:09.649Z,1.35
2022-11-28T06:23:37.464Z,1.37
2022-11-28T06:26:09.899Z,1.41
2022-11-28T06:28:37.362Z,1.38
2022-11-28T06:31:05.262Z,1.40
2022-11-28T06:33:32.576Z,1.41
2022-11-28T06:36:04.495Z,1.36
2022-11-28T06:38:31.441Z,1.39
2022-11-28T06:41:04.495Z,1.40
2022-11-28T06:43:32.052Z,1.39
2022-11-28T06:45:59.045Z,1.40
2022-11-28T06:48:26.712Z,1.35
2022-11-28T06:50:53.897Z,1.34
2022-11-28T06:53:20.942Z,1.41
2022-11-28T06:55:47.928Z,1.40
2022-11-28T06:58:14.908Z,1.41
2022-11-28T07:00:41.977Z,1.46
2022-11-28T07:03:08.962Z,1.41
2022-11-28T07:05:35.896Z,1.46
2022-11-28T07:08:02.812Z,1.43
2022-11-28T07:10:30.146Z,1.48
2022-11-28T07:13:04.882Z,1.52
2022-11-28T07:15:32.480Z,1.54
2022-11-28T07:17:59.413Z,1.60
2022-11-28T07:20:26.346Z,1.59
2022-11-28T07:22:53.400Z,1.62
2022-11-28T07:25:20.523Z,1.70
2022-11-28T07:27:47.473Z,1.73
2022-11-28T07:30:14.557Z,1.72
2022-11-28T07:32:41.766Z,1.76
2022-11-28T07:35:09.115Z,1.82
2022-11-28T07:37:36.481Z,1.85
2022-11-28T07:40:05.125Z,1.87
2022-11-28T07:42:32.091Z,1.89
2022-11-28T07:45:05.485Z,1.98
2022-11-28T07:47:32.504Z,1.97
2022-11-28T07:49:59.393Z,2.02
2022-11-28T07:52:26.309Z,2.07
2022-11-28T07:54:53.245Z,2.13
2022-11-28T07:57:20.295Z,2.08
2022-11-28T07:59:47.206Z,2.02
2022-11-28T08:02:14.292Z,2.00
2022-11-28T08:04:48.380Z,1.97
2022-11-28T08:07:17.427Z,1.94
2022-11-28T08:09:44.849Z,1.90
2022-11-28T08:12:11.931Z,1.91
2022-11-28T08:14:38.862Z,1.91
2022-11-28T08:17:05.783Z,1.89
2022-11-28T08:19:35.383Z,1.84
2022-11-28T08:22:02.751Z,1.84
2022-11-28T08:24:29.679Z,1.91
2022-11-28T08:26:57.288Z,1.90
2022-11-28T08:29:24.183Z,1.90
2022-11-28T08:31:51.131Z,1.85
2022-11-28T08:34:18.055Z,1.84
2022-11-28T08:36:45.057Z,1.84
2022-11-28T08:39:27.795Z,1.89
2022-11-28T08:41:59.705Z,1.82
2022-11-28T08:44:30.168Z,1.83
2022-11-28T08:46:57.467Z,1.92
2022-11-28T08:49:24.405Z,1.99
2022-11-28T08:51:51.379Z,1.95
2022-11-28T08:54:18.337Z,2.00
2022-11-28T08:56:47.967Z,2.00
2022-11-28T08:59:14.967Z,2.07
2022-11-28T09:01:41.921Z,2.12
2022-11-28T09:04:08.981Z,2.12
2022-11-28T09:06:39.330Z,2.11
2022-11-28T09:09:06.428Z,2.09
2022-11-28T09:11:33.461Z,2.16
2022-11-28T09:14:00.687Z,2.16
2022-11-28T09:16:27.841Z,2.21
2022-11-28T09:18:57.612Z,2.17
2022-11-28T09:21:24.623Z,2.22
2022-11-28T09:23:54.450Z,2.14
2022-11-28T09:26:24.738Z,2.09
2022-11-28T09:28:52.434Z,2.17
2022-11-28T09:31:20.683Z,2.17
2022-11-28T09:33:49.559Z,2.14
2022-11-28T09:36:22.261Z,2.12
2022-11-28T09:38:49.898Z,2.17
2022-11-28T09:41:28.857Z,2.23
2022-11-28T09:43:59.039Z,2.24
2022-11-28T10:18:58.128Z,2.26
2022-11-28T10:21:37.318Z,2.39
2022-11-28T10:24:11.976Z,2.50
2022-11-28T10:26:44.584Z,2.65
2022-11-28T10:29:26.666Z,2.64
2022-11-28T10:31:59.986Z,2.63
2022-11-28T10:34:34.912Z,2.68
2022-11-28T10:37:11.145Z,2.71
2022-11-28T10:39:43.389Z,2.74
2022-11-28T10:42:35.642Z,2.79
2022-11-28T10:45:05.261Z,2.90
2022-11-28T10:47:50.318Z,2.82
2022-11-28T10:50:47.829Z,2.71
2022-11-28T10:53:14.680Z,2.62
2022-11-28T10:56:14.238Z,2.64
2022-11-28T10:58:47.005Z,2.62
2022-11-28T11:01:14.225Z,2.65
2022-11-28T11:03:41.842Z,2.62
2022-11-28T11:06:09.191Z,2.64
2022-11-28T11:08:38.166Z,2.63
2022-11-28T11:11:19.402Z,2.58
2022-11-28T11:14:03.043Z,2.56
2022-11-28T11:16:56.538Z,2.59
2022-11-28T11:19:23.429Z,2.61
2022-11-28T11:22:21.148Z,2.57
2022-11-28T11:25:12.929Z,2.54
2022-11-28T11:27:51.840Z,2.55
2022-11-28T11:30:35.108Z,2.51
2022-11-28T11:33:05.980Z,2.49
2022-11-28T11:35:45.029Z,2.49
2022-11-28T11:38:20.817Z,2.61
2022-11-28T11:40:52.028Z,2.59
2022-11-28T11:43:24.638Z,2.50
2022-11-28T11:46:10.298Z,2.37
2022-11-28T11:48:39.618Z,2.45
2022-11-28T11:51:08.143Z,2.47
2022-11-28T11:53:35.100Z,2.54
2022-11-28T11:56:03.857Z,2.50
2022-11-28T11:58:52.912Z,2.54
2022-11-28T12:01:21.796Z,2.58
2022-11-28T12:03:51.521Z,2.54
2022-11-28T12:06:25.249Z,2.49
2022-11-28T12:08:54.002Z,2.54
2022-11-28T12:11:32.003Z,2.57
2022-11-28T12:14:13.684Z,2.57
2022-11-28T12:17:00.576Z,2.53
2022-11-28T12:19:46.015Z,2.51
2022-11-28T12:22:25.129Z,2.52
2022-11-28T12:25:11.776Z,2.46
2022-11-28T12:27:50.330Z,2.43
2022-11-28T12:30:20.378Z,2.46
2022-11-28T12:33:06.092Z,2.50
2022-11-28T12:35:42.438Z,2.47
2022-11-28T12:38:15.200Z,2.50
2022-11-28T12:40:52.071Z,2.46
2022-11-28T12:43:24.853Z,2.45
2022-11-28T12:46:23.330Z,2.43
2022-11-28T12:49:12.273Z,2.50
2022-11-28T12:52:04.030Z,2.43
2022-11-28T12:55:01.504Z,2.47
2022-11-28T12:57:50.543Z,2.48
2022-11-28T13:00:28.009Z,2.50
2022-11-28T13:03:13.108Z,2.44
2022-11-28T13:05:58.210Z,2.41
2022-11-28T13:08:28.087Z,2.39
2022-11-28T13:11:18.182Z,2.37
2022-11-28T13:13:49.864Z,2.41
2022-11-28T13:16:26.432Z,2.38
2022-11-28T13:19:16.880Z,2.38
2022-11-28T13:21:49.668Z,2.39
2022-11-28T13:24:25.541Z,2.36
2022-11-28T13:27:05.887Z,2.39
2022-11-28T13:29:56.713Z,2.44
2022-11-28T13:32:55.321Z,2.48
2022-11-28T13:35:23.830Z,2.42
2022-11-28T13:40:52.796Z,2.42
2022-11-28T13:43:22.538Z,2.36
2022-11-28T13:45:52.628Z,2.38
2022-11-28T13:49:13.251Z,2.39
2022-11-28T13:51:33.669Z,2.36
2022-11-28T13:54:19.394Z,2.37
2022-11-28T13:57:11.167Z,2.43
2022-11-28T13:59:38.731Z,2.44
2022-11-28T14:02:25.872Z,2.39
2022-11-28T14:04:52.940Z,2.38
2022-11-28T14:07:28.038Z,2.37
2022-11-28T14:10:09.789Z,2.35
2022-11-28T14:13:05.613Z,2.35
2022-11-28T14:15:53.384Z,2.34
2022-11-28T14:18:48.289Z,2.34
2022-11-28T14:21:30.701Z,2.34
2022-11-28T14:24:22.195Z,2.29
2022-11-28T14:26:58.954Z,2.30
2022-11-28T14:29:38.679Z,2.30
2022-11-28T14:32:30.029Z,2.28
2022-11-28T14:34:54.875Z,2.28
2022-11-28T14:37:22.098Z,2.26
2022-11-28T14:39:50.706Z,2.25
2022-11-28T14:42:37.201Z,2.23
2022-11-28T14:45:49.593Z,2.26
2022-11-28T14:48:22.380Z,2.28
2022-11-28T14:50:57.556Z,2.24
2022-11-28T14:53:33.958Z,2.22
2022-11-28T14:56:16.048Z,2.22
2022-11-28T14:58:48.014Z,2.19
2022-11-28T15:01:25.419Z,2.14
2022-11-28T15:03:59.202Z,2.11
2022-11-28T15:06:36.166Z,2.06
2022-11-28T15:09:07.788Z,2.04
2022-11-28T15:11:59.634Z,2.02
2022-11-28T15:14:29.222Z,1.98
2022-11-28T15:17:00.667Z,1.97
2022-11-28T15:19:33.186Z,1.97
2022-11-28T15:22:00.773Z,1.96
2022-11-28T15:24:30.762Z,1.99
2022-11-28T15:27:07.129Z,1.95
2022-11-28T15:29:35.697Z,1.94
2022-11-28T15:32:04.129Z,1.95
2022-11-28T15:34:33.604Z,1.95
2022-11-28T15:37:04.725Z,1.95
2022-11-28T15:39:39.992Z,1.95
2022-11-28T15:42:25.068Z,1.96
2022-11-28T15:45:03.865Z,1.94
2022-11-28T15:47:31.452Z,1.94
2022-11-28T15:50:05.653Z,1.92
2022-11-28T15:52:32.851Z,1.90
2022-11-28T15:55:00.169Z,1.89
2022-11-28T15:57:28.658Z,1.89
2022-11-28T15:59:56.698Z,1.84
2022-11-28T16:02:29.492Z,1.86
2022-11-28T16:05:11.359Z,1.86
2022-11-28T16:07:43.346Z,1.81
2022-11-28T16:10:22.247Z,1.84
2022-11-28T16:12:49.888Z,1.89
2022-11-28T16:15:22.448Z,1.83
2022-11-28T16:17:49.886Z,1.83
2022-11-28T16:20:23.542Z,1.79
2022-11-28T16:22:50.524Z,1.80
2022-11-28T16:25:23.999Z,1.77
2022-11-28T16:27:53.445Z,1.75
2022-11-28T16:30:23.710Z,1.77
2022-11-28T16:32:52.820Z,1.74
2022-11-28T16:35:31.750Z,1.75
2022-11-28T16:38:05.998Z,1.74
2022-11-28T16:40:33.321Z,1.74
2022-11-28T16:43:03.030Z,1.71
2022-11-28T16:45:32.886Z,1.74
2022-11-28T16:48:15.424Z,1.74
2022-11-28T16:51:02.171Z,1.74
2022-11-28T16:53:55.779Z,1.74
2022-11-28T16:56:31.591Z,1.72
2022-11-28T16:59:09.160Z,1.70
2022-11-28T17:01:36.398Z,1.67
2022-11-28T17:04:04.182Z,1.69
2022-11-28T17:06:37.689Z,1.67
2022-11-28T17:09:11.193Z,1.68
2022-11-28T17:11:43.130Z,1.64
2022-11-28T17:14:13.850Z,1.64
2022-11-28T17:16:42.168Z,1.62
2022-11-28T17:19:09.440Z,1.61
2022-11-28T17:21:42.071Z,1.60
2022-11-28T17:24:23.370Z,1.57
2022-11-28T17:26:51.567Z,1.59
2022-11-28T17:29:19.557Z,1.61
2022-11-28T17:31:48.368Z,1.57
2022-11-28T17:34:20.970Z,1.57
2022-11-28T17:36:48.143Z,1.58
2022-11-28T17:39:15.427Z,1.59
2022-11-28T17:41:42.945Z,1.58
2022-11-28T17:44:21.957Z,1.57
2022-11-28T17:46:50.525Z,1.58
2022-11-28T17:49:18.487Z,1.57
2022-11-28T17:51:45.545Z,1.54
2022-11-28T17:54:16.489Z,1.54
2022-11-28T17:56:50.167Z,1.54
2022-11-28T17:59:20.363Z,1.53
2022-11-28T18:01:48.540Z,1.51
2022-11-28T18:04:15.807Z,1.48
2022-11-28T18:06:44.677Z,1.52
2022-11-28T18:09:12.769Z,1.46
2022-11-28T18:11:40.841Z,1.46
2022-11-28T18:14:08.989Z,1.43
2022-11-28T18:16:36.454Z,1.43
2022-11-28T18:19:04.432Z,1.42
2022-11-28T18:21:32.337Z,1.42
2022-11-28T18:23:59.401Z,1.37
2022-11-28T18:26:26.888Z,1.37
2022-11-28T18:28:54.682Z,1.35
2022-11-28T18:31:25.225Z,1.32
2022-11-28T18:33:56.244Z,1.31
2022-11-28T18:36:27.771Z,1.30
2022-11-28T18:39:02.359Z,1.29
2022-11-28T18:41:30.395Z,1.32
2022-11-28T18:44:03.548Z,1.29
2022-11-28T18:46:31.651Z,1.28
2022-11-28T18:48:58.787Z,1.31
2022-11-28T18:51:31.183Z,1.36
2022-11-28T18:53:58.705Z,1.34
2022-11-28T18:56:26.656Z,1.34
2022-11-28T18:58:54.657Z,1.37
2022-11-28T19:01:29.139Z,1.33
2022-11-28T19:04:02.201Z,1.34
2022-11-28T19:06:30.150Z,1.39
2022-11-28T19:08:59.689Z,1.40
2022-11-28T19:11:28.699Z,1.35
2022-11-28T19:13:57.137Z,1.36
2022-11-28T19:16:27.507Z,1.35
2022-11-28T19:18:55.826Z,1.28
2022-11-28T19:21:25.765Z,1.23
2022-11-28T19:23:55.273Z,1.23
2022-11-28T19:26:25.483Z,1.24
2022-11-28T19:28:53.910Z,1.19
2022-11-28T19:31:29.289Z,1.20
2022-11-28T19:34:01.162Z,1.18
2022-11-28T19:36:37.564Z,1.18
2022-11-28T19:39:05.401Z,1.16
2022-11-28T19:41:32.826Z,1.13
2022-11-28T19:44:00.580Z,1.15
2022-11-28T19:46:35.159Z,1.14
2022-11-28T19:49:06.709Z,1.14
2022-11-28T19:51:34.904Z,1.15
2022-11-28T19:54:03.786Z,1.13
2022-11-28T19:56:33.371Z,1.14
2022-11-28T19:59:00.653Z,1.17
2022-11-28T20:01:28.383Z,1.21
2022-11-28T20:03:55.705Z,1.21
2022-11-28T20:06:31.108Z,1.24
2022-11-28T20:09:01.435Z,1.27
2022-11-28T20:11:31.911Z,1.25
2022-11-28T20:14:06.615Z,1.23
2022-11-28T20:16:35.761Z,1.22
2022-11-28T20:19:04.815Z,1.23
2022-11-28T20:21:33.114Z,1.22
2022-11-28T20:24:07.450Z,1.23
2022-11-28T20:26:42.208Z,1.21
2022-11-28T20:29:12.189Z,1.19
2022-11-28T20:31:46.042Z,1.14
2022-11-28T20:34:17.549Z,1.12
2022-11-28T20:36:45.640Z,1.12
2022-11-28T20:39:13.331Z,1.09
2022-11-28T20:41:40.377Z,1.09
2022-11-28T20:44:07.603Z,1.10
2022-11-28T20:46:35.706Z,1.10
2022-11-28T20:49:05.796Z,1.10
2022-11-28T20:51:34.078Z,1.14
2022-11-28T20:54:01.987Z,1.14
2022-11-28T20:56:31.891Z,1.15
2022-11-28T20:59:00.883Z,1.16
2022-11-28T21:01:31.130Z,1.17
2022-11-28T21:03:58.535Z,1.18
2022-11-28T21:06:25.625Z,1.17
2022-11-28T21:08:52.635Z,1.22
2022-11-28T21:11:50.087Z,1.21
2022-11-28T21:14:08.471Z,1.20
2022-11-28T21:16:35.480Z,1.21
2022-11-28T21:19:06.493Z,1.20
2022-11-28T21:21:34.411Z,1.20
2022-11-28T21:24:04.662Z,1.21
2022-11-28T21:26:37.592Z,1.21
2022-11-28T21:29:09.390Z,1.24
2022-11-28T21:31:41.392Z,1.21
2022-11-28T21:34:08.349Z,1.26
2022-11-28T21:36:35.364Z,1.28
2022-11-28T21:39:02.406Z,1.31
2022-11-28T21:41:31.662Z,1.30
2022-11-28T21:43:59.557Z,1.28
2022-11-28T21:46:27.739Z,1.28
2022-11-28T21:48:55.021Z,1.26
2022-11-28T21:51:24.042Z,1.30
2022-11-28T21:53:51.891Z,1.33
2022-11-28T21:56:19.305Z,1.31
2022-11-28T21:58:46.181Z,1.33
2022-11-28T22:01:14.883Z,1.37
2022-11-28T22:03:43.906Z,1.32
2022-11-28T22:06:17.825Z,1.33
2022-11-28T22:08:45.551Z,1.32
2022-11-28T22:11:13.532Z,1.33
2022-11-28T22:13:42.851Z,1.35
2022-11-28T22:16:12.396Z,1.35
2022-11-28T22:18:39.355Z,1.36
2022-11-28T22:21:22.548Z,1.32
2022-11-28T22:23:58.191Z,1.33
2022-11-28T22:26:25.115Z,1.33
2022-11-28T22:28:53.844Z,1.38
2022-11-28T22:31:23.338Z,1.40
2022-11-28T22:33:50.499Z,1.38
2022-11-28T22:36:19.861Z,1.37
2022-11-28T22:38:49.023Z,1.43
2022-11-28T22:41:27.922Z,1.41
2022-11-28T22:43:57.898Z,1.43
2022-11-28T22:46:24.987Z,1.48
2022-11-28T22:48:52.238Z,1.52
2022-11-28T22:51:24.655Z,1.49
2022-11-28T22:53:56.785Z,1.51
2022-11-28T22:56:26.491Z,1.49
2022-11-28T22:58:54.074Z,1.50
2022-11-28T23:01:24.373Z,1.55
2022-11-28T23:03:52.188Z,1.50
2022-11-28T23:06:21.670Z,1.59
2022-11-28T23:08:54.495Z,1.55
2022-11-28T23:11:24.112Z,1.58
2022-11-28T23:13:52.331Z,1.55
2022-11-28T23:16:19.510Z,1.59
2022-11-28T23:18:51.674Z,1.60
2022-11-28T23:21:20.029Z,1.56
2022-11-28T23:23:47.707Z,1.62
2022-11-28T23:26:26.393Z,1.59
2022-11-28T23:28:54.255Z,1.57
2022-11-28T23:31:27.700Z,1.56
2022-11-28T23:33:55.673Z,1.58
2022-11-28T23:36:28.541Z,1.60
2022-11-28T23:38:58.462Z,1.63
2022-11-28T23:41:26.443Z,1.66
2022-11-28T23:43:53.443Z,1.69
2022-11-28T23:46:23.667Z,1.64
2022-11-28T23:48:50.996Z,1.71
2022-11-28T23:51:20.117Z,1.70
2022-11-28T23:53:47.215Z,1.72
2022-11-28T23:56:19.898Z,1.74
2022-11-28T23:58:47.626Z,1.74
